Time;durP1;ratioP1;P1;durP2;ratioP2;P2;SDS_P1;SDS_P2;PMS_P1;PMS_P2;Temp;Humidity;BMP_temperature;BMP_pressure;BME280_temperature;BME280_humidity;BME280_pressure;Samples;Min_cycle;Max_cycle;Signal;HPM_P1;HPM_P2
2023/11/18 00:00:27;;;;;;;13.82;6.90;;;12.40;99.90;;;;;;4266998;27;20046;-56
2023/11/18 00:02:30;;;;;;;17.02;7.00;;;12.40;99.90;;;;;;4266946;27;20413;-57
2023/11/18 00:04:32;;;;;;;17.30;7.60;;;12.50;99.90;;;;;;4266810;27;20482;-57
2023/11/18 00:06:35;;;;;;;15.68;7.18;;;12.60;99.90;;;;;;4266972;27;20130;-56
2023/11/18 00:08:38;;;;;;;15.57;6.35;;;12.60;99.90;;;;;;4266659;27;20043;-56
2023/11/18 00:10:40;;;;;;;15.40;6.95;;;12.60;99.90;;;;;;4266865;27;20430;-57
2023/11/18 00:12:42;;;;;;;17.33;7.07;;;12.70;99.90;;;;;;4267964;27;20055;-57
2023/11/18 00:14:45;;;;;;;15.95;6.55;;;12.50;99.90;;;;;;4266821;27;20406;-56
2023/11/18 00:16:47;;;;;;;14.48;6.20;;;12.50;99.90;;;;;;4266738;27;20049;-56
2023/11/18 00:18:49;;;;;;;21.02;6.88;;;12.60;99.90;;;;;;4266761;27;20103;-56
2023/11/18 00:20:52;;;;;;;15.02;6.85;;;12.60;99.90;;;;;;4266890;27;20054;-57
2023/11/18 00:22:55;;;;;;;19.45;8.05;;;12.70;99.90;;;;;;4268896;27;20070;-57
2023/11/18 00:24:57;;;;;;;13.77;6.93;;;12.70;99.90;;;;;;4268267;27;20046;-56
2023/11/18 00:26:59;;;;;;;14.45;6.35;;;12.80;99.90;;;;;;4268003;27;20068;-57
2023/11/18 00:29:01;;;;;;;18.02;7.88;;;12.70;99.90;;;;;;4268196;27;20074;-58
2023/11/18 00:31:04;;;;;;;17.75;8.35;;;12.80;99.90;;;;;;4267876;27;20047;-57
2023/11/18 00:33:07;;;;;;;12.40;7.18;;;12.70;99.90;;;;;;4268830;27;20043;-57
2023/11/18 00:35:10;;;;;;;14.70;7.78;;;12.70;99.90;;;;;;4268328;27;20043;-57
2023/11/18 00:37:12;;;;;;;17.23;8.02;;;12.60;99.90;;;;;;4267556;27;20050;-57
2023/11/18 00:39:15;;;;;;;15.60;8.32;;;12.60;99.90;;;;;;4267552;27;20050;-57
2023/11/18 00:41:17;;;;;;;16.13;7.40;;;12.70;99.90;;;;;;4267092;27;20054;-57
2023/11/18 00:43:20;;;;;;;19.85;7.70;;;12.70;99.90;;;;;;4266560;27;20473;-56
2023/11/18 00:45:22;;;;;;;21.48;8.90;;;12.80;99.90;;;;;;4266554;27;20476;-56
2023/11/18 00:47:24;;;;;;;18.70;9.20;;;12.80;99.90;;;;;;4266136;27;20420;-56
2023/11/18 00:49:27;;;;;;;16.02;8.18;;;12.70;99.90;;;;;;4265582;27;20417;-55
2023/11/18 00:51:29;;;;;;;20.13;8.68;;;12.70;99.90;;;;;;4266153;27;20043;-56
2023/11/18 00:53:32;;;;;;;19.38;8.00;;;12.80;99.90;;;;;;4266552;27;20043;-57
2023/11/18 00:55:35;;;;;;;14.13;8.43;;;12.80;99.90;;;;;;4269294;27;20082;-62
2023/11/18 00:57:39;;;;;;;14.43;7.82;;;12.70;99.90;;;;;;4250512;27;20412;-57
2023/11/18 00:59:44;;;;;;;16.70;7.68;;;12.70;99.90;;;;;;4266914;27;20053;-58
2023/11/18 01:01:45;;;;;;;;;;;12.70;99.90;;;;;;4266569;27;20071;-61
2023/11/18 01:03:48;;;;;;;14.98;7.55;;;12.60;99.90;;;;;;4265553;27;20297;-57
2023/11/18 01:05:50;;;;;;;15.05;7.57;;;12.60;99.90;;;;;;4265786;27;20460;-58
2023/11/18 01:07:52;;;;;;;18.60;7.97;;;12.60;99.90;;;;;;4265746;27;20064;-57
2023/11/18 01:09:54;;;;;;;12.40;7.75;;;12.50;99.90;;;;;;4265714;27;20079;-57
2023/11/18 01:11:58;;;;;;;15.18;8.98;;;12.50;99.90;;;;;;4230066;28;20098;-58
2023/11/18 01:14:09;;;;;;;17.20;8.02;;;12.50;99.90;;;;;;4265939;27;20050;-57
2023/11/18 01:16:13;;;;;;;16.35;9.27;;;12.50;99.90;;;;;;4265539;27;20439;-56
2023/11/18 01:18:15;;;;;;;15.82;8.50;;;12.40;99.90;;;;;;4265329;27;20133;-55
2023/11/18 01:20:21;;;;;;;19.73;9.15;;;12.50;99.90;;;;;;4265639;27;20122;-57
2023/11/18 01:22:24;;;;;;;17.13;7.88;;;12.40;99.90;;;;;;4265607;27;20548;-57
2023/11/18 01:24:26;;;;;;;14.20;7.88;;;12.40;99.90;;;;;;4265059;27;20485;-57
2023/11/18 01:26:28;;;;;;;17.65;8.10;;;12.40;99.90;;;;;;4265220;27;20533;-57
2023/11/18 01:28:36;;;;;;;18.65;8.77;;;12.40;99.90;;;;;;4265552;27;20404;-55
2023/11/18 01:30:38;;;;;;;14.57;7.63;;;12.40;99.90;;;;;;4265522;27;20043;-56
2023/11/18 01:32:40;;;;;;;17.10;8.07;;;12.40;99.90;;;;;;4265640;27;20049;-56
2023/11/18 01:34:44;;;;;;;12.55;7.70;;;12.40;99.90;;;;;;4265395;27;20046;-56
2023/11/18 01:36:46;;;;;;;16.15;8.75;;;12.40;99.90;;;;;;4265417;27;20474;-57
2023/11/18 01:38:48;;;;;;;16.95;8.48;;;12.40;99.90;;;;;;4265397;27;20085;-54
2023/11/18 01:40:50;;;;;;;19.83;8.30;;;12.40;99.90;;;;;;4265129;27;20100;-55
2023/11/18 01:42:53;;;;;;;12.35;7.35;;;12.40;99.90;;;;;;4265196;27;20047;-56
2023/11/18 01:44:56;;;;;;;18.73;7.18;;;12.30;99.90;;;;;;4265337;27;20038;-57
2023/11/18 01:47:03;;;;;;;13.35;7.10;;;12.30;99.90;;;;;;4264968;27;20084;-56
2023/11/18 01:49:07;;;;;;;17.55;7.70;;;12.20;99.90;;;;;;4246740;27;20035;-56
2023/11/18 01:51:10;;;;;;;17.10;8.13;;;12.20;99.90;;;;;;4265025;27;20054;-57
2023/11/18 01:53:13;;;;;;;15.98;7.75;;;12.20;99.90;;;;;;4265109;27;20117;-57
2023/11/18 01:55:16;;;;;;;17.33;6.68;;;12.20;99.90;;;;;;4264615;27;20046;-55
2023/11/18 01:57:18;;;;;;;14.25;7.20;;;12.20;99.90;;;;;;4265014;27;20043;-58
2023/11/18 01:59:21;;;;;;;18.90;8.27;;;12.20;99.90;;;;;;4265090;27;20103;-56
2023/11/18 02:01:26;;;;;;;15.38;7.38;;;12.20;99.90;;;;;;4265017;27;20130;-57
2023/11/18 02:03:30;;;;;;;14.07;7.50;;;12.10;99.90;;;;;;4264847;27;20485;-56
2023/11/18 02:05:35;;;;;;;17.60;7.57;;;12.20;99.90;;;;;;4264994;27;20450;-57
2023/11/18 02:07:38;;;;;;;14.57;6.93;;;12.20;99.90;;;;;;4264771;27;20125;-56
2023/11/18 02:09:41;;;;;;;18.08;7.05;;;12.10;99.90;;;;;;4264712;27;20496;-57
2023/11/18 02:11:49;;;;;;;14.38;7.25;;;12.10;99.90;;;;;;4264937;27;20401;-56
2023/11/18 02:13:56;;;;;;;16.90;6.13;;;12.00;99.90;;;;;;4264910;27;20039;-57
2023/11/18 02:15:58;;;;;;;12.27;5.95;;;12.10;99.90;;;;;;4265115;27;20473;-57
2023/11/18 02:18:09;;;;;;;11.45;6.43;;;12.10;99.90;;;;;;4264700;27;20042;-58
2023/11/18 02:20:16;;;;;;;12.82;5.75;;;12.10;99.90;;;;;;4264943;27;20043;-57
2023/11/18 02:22:21;;;;;;;13.55;5.07;;;12.10;99.90;;;;;;4264781;27;20375;-56
2023/11/18 02:24:28;;;;;;;11.07;5.78;;;12.20;99.90;;;;;;4264499;27;20043;-56
2023/11/18 02:26:34;;;;;;;15.90;6.18;;;12.30;99.90;;;;;;4264793;27;20073;-57
2023/11/18 02:28:36;;;;;;;13.23;5.75;;;12.20;99.90;;;;;;4264409;27;20038;-56
2023/11/18 02:30:38;;;;;;;11.05;5.65;;;12.20;99.90;;;;;;4264743;27;20091;-58
2023/11/18 02:32:47;;;;;;;11.98;6.22;;;12.20;99.90;;;;;;4246220;28;20482;-56
2023/11/18 02:35:02;;;;;;;14.90;5.32;;;12.20;99.90;;;;;;4264736;27;20406;-60
2023/11/18 02:37:06;;;;;;;;;;;12.20;99.90;;;;;;4265215;27;20376;-56
2023/11/18 02:39:17;;;;;;;10.43;4.70;;;12.20;99.90;;;;;;4264254;27;20440;-57
2023/11/18 02:41:22;;;;;;;19.77;5.50;;;12.20;99.90;;;;;;4264487;27;20043;-57
2023/11/18 02:43:28;;;;;;;12.88;5.07;;;12.30;99.90;;;;;;4264697;27;20266;-56
2023/11/18 02:45:31;;;;;;;12.65;4.78;;;12.40;99.90;;;;;;4264345;27;20083;-57
2023/11/18 02:47:34;;;;;;;14.30;4.78;;;12.40;99.90;;;;;;4246352;28;20093;-57
2023/11/18 02:49:36;;;;;;;11.00;4.40;;;12.50;99.90;;;;;;4264396;27;20177;-53
2023/11/18 02:51:39;;;;;;;11.57;5.18;;;12.40;99.90;;;;;;4264679;27;20115;-57
2023/11/18 02:53:44;;;;;;;15.18;5.47;;;12.40;99.90;;;;;;4264384;27;20042;-53
2023/11/18 02:55:47;;;;;;;11.13;4.78;;;12.40;99.90;;;;;;4264508;27;20047;-54
2023/11/18 02:57:49;;;;;;;11.13;5.50;;;12.30;99.90;;;;;;4264326;27;20042;-54
2023/11/18 02:59:52;;;;;;;12.82;4.65;;;12.30;99.90;;;;;;4264814;27;20374;-57
2023/11/18 03:01:54;;;;;;;10.93;4.75;;;12.30;99.90;;;;;;4264608;27;20418;-54
2023/11/18 03:03:58;;;;;;;8.35;4.35;;;12.30;99.90;;;;;;4264250;27;20074;-54
2023/11/18 03:06:01;;;;;;;10.52;5.03;;;12.30;99.90;;;;;;4264643;27;20047;-57
2023/11/18 03:08:06;;;;;;;10.52;4.85;;;12.40;99.90;;;;;;4264069;27;20056;-57
2023/11/18 03:10:11;;;;;;;9.80;4.38;;;12.40;99.90;;;;;;4264096;27;20043;-57
2023/11/18 03:12:13;;;;;;;11.18;4.65;;;12.20;99.90;;;;;;4266377;27;20074;-57
2023/11/18 03:14:16;;;;;;;9.13;3.78;;;12.20;99.90;;;;;;4267479;27;20067;-56
2023/11/18 03:16:20;;;;;;;10.30;4.70;;;12.20;99.90;;;;;;4267737;27;20122;-57
2023/11/18 03:18:24;;;;;;;;;;;12.30;99.90;;;;;;4250124;27;20050;-57
2023/11/18 03:20:26;;;;;;;11.45;4.20;;;12.20;99.90;;;;;;4267960;27;19923;-57
2023/11/18 03:22:28;;;;;;;11.77;4.90;;;12.20;99.90;;;;;;4267496;27;20065;-57
2023/11/18 03:24:30;;;;;;;13.18;4.57;;;12.20;99.90;;;;;;4269289;27;20038;-56
2023/11/18 03:26:33;;;;;;;8.15;3.65;;;12.20;99.90;;;;;;4271040;27;20410;-60
2023/11/18 03:28:36;;;;;;;11.07;4.30;;;12.20;99.90;;;;;;4269632;27;20058;-58
2023/11/18 03:30:38;;;;;;;14.45;4.82;;;12.20;99.90;;;;;;4267405;27;20043;-57
2023/11/18 03:32:42;;;;;;;8.43;4.00;;;12.20;99.90;;;;;;4267473;27;20050;-56
2023/11/18 03:34:44;;;;;;;8.05;4.00;;;12.10;99.90;;;;;;4267810;27;20050;-58
2023/11/18 03:36:47;;;;;;;10.25;4.43;;;12.10;99.90;;;;;;4267182;27;20043;-57
2023/11/18 03:38:49;;;;;;;11.77;4.35;;;12.10;99.90;;;;;;4267886;27;20092;-56
2023/11/18 03:40:52;;;;;;;11.50;4.43;;;12.10;99.90;;;;;;4268586;27;20050;-63
2023/11/18 03:42:54;;;;;;;10.45;4.47;;;12.00;99.90;;;;;;4269631;27;20115;-54
2023/11/18 03:44:57;;;;;;;11.75;4.60;;;12.00;99.90;;;;;;4269233;27;20117;-53
2023/11/18 03:46:59;;;;;;;9.93;3.88;;;11.90;99.90;;;;;;4267803;27;20043;-55
2023/11/18 03:49:03;;;;;;;8.60;3.88;;;12.00;99.90;;;;;;4267668;27;20046;-53
2023/11/18 03:51:05;;;;;;;8.40;3.38;;;12.00;99.90;;;;;;4267469;27;20055;-54
2023/11/18 03:53:07;;;;;;;9.43;4.07;;;12.10;99.90;;;;;;4267301;27;20046;-54
2023/11/18 03:55:09;;;;;;;11.32;4.10;;;12.00;99.90;;;;;;4267107;27;20438;-55
2023/11/18 03:57:12;;;;;;;15.32;4.22;;;12.10;99.90;;;;;;4267805;27;20490;-60
2023/11/18 03:59:14;;;;;;;12.00;4.10;;;12.10;99.90;;;;;;4267953;27;20046;-54
2023/11/18 04:01:20;;;;;;;10.15;4.28;;;12.00;99.90;;;;;;4267105;27;20458;-57
2023/11/18 04:03:22;;;;;;;10.57;3.60;;;12.00;99.90;;;;;;4266379;27;20047;-57
2023/11/18 04:05:26;;;;;;;11.35;4.03;;;12.00;99.90;;;;;;4266665;27;20061;-57
2023/11/18 04:07:28;;;;;;;7.90;3.53;;;12.00;99.90;;;;;;4266627;27;20060;-57
2023/11/18 04:09:30;;;;;;;11.50;4.38;;;12.00;99.90;;;;;;4266542;27;20043;-57
2023/11/18 04:11:33;;;;;;;12.63;3.45;;;12.10;99.90;;;;;;4266678;27;20043;-56
2023/11/18 04:13:35;;;;;;;11.85;3.67;;;12.00;99.90;;;;;;4266689;27;20082;-57
2023/11/18 04:15:37;;;;;;;12.30;4.55;;;11.90;99.90;;;;;;4266470;27;20046;-56
2023/11/18 04:17:40;;;;;;;8.95;3.55;;;11.90;99.90;;;;;;4266689;27;20078;-57
2023/11/18 04:19:42;;;;;;;13.98;3.80;;;12.00;99.90;;;;;;4266474;27;20054;-57
2023/11/18 04:21:49;;;;;;;11.88;3.50;;;12.00;99.90;;;;;;4266693;27;20043;-57
2023/11/18 04:23:51;;;;;;;12.90;3.75;;;11.90;99.90;;;;;;4266607;27;20547;-57
2023/11/18 04:25:53;;;;;;;9.68;3.40;;;12.00;99.90;;;;;;4266781;27;20043;-57
2023/11/18 04:27:55;;;;;;;11.65;3.67;;;11.90;99.90;;;;;;4266413;27;20050;-56
2023/11/18 04:29:57;;;;;;;14.82;4.03;;;12.00;99.90;;;;;;4266172;27;20051;-57
2023/11/18 04:31:59;;;;;;;13.85;4.10;;;11.90;99.90;;;;;;4266659;27;20047;-61
2023/11/18 04:34:02;;;;;;;10.88;3.95;;;12.00;99.90;;;;;;4265943;27;20494;-56
2023/11/18 04:36:05;;;;;;;12.38;3.47;;;11.90;99.90;;;;;;4266304;27;20478;-57
2023/11/18 04:38:09;;;;;;;10.55;3.65;;;12.00;99.90;;;;;;4266116;27;20039;-57
2023/11/18 04:40:11;;;;;;;11.90;3.75;;;12.00;99.90;;;;;;4266225;27;20086;-55
2023/11/18 04:42:15;;;;;;;8.20;3.03;;;12.00;99.90;;;;;;4266213;27;20113;-56
2023/11/18 04:44:17;;;;;;;8.15;2.92;;;12.00;99.90;;;;;;4265977;27;20091;-58
2023/11/18 04:46:19;;;;;;;10.18;3.75;;;12.00;99.90;;;;;;4265975;27;20407;-56
2023/11/18 04:48:22;;;;;;;10.38;3.25;;;12.00;99.90;;;;;;4265922;27;20046;-58
2023/11/18 04:50:24;;;;;;;8.23;3.55;;;11.90;99.90;;;;;;4265925;27;20428;-57
2023/11/18 04:52:26;;;;;;;9.50;3.58;;;11.80;99.90;;;;;;4265921;27;20043;-57
2023/11/18 04:54:30;;;;;;;12.00;4.00;;;11.70;99.90;;;;;;4265948;27;20130;-57
2023/11/18 04:56:32;;;;;;;6.85;2.85;;;11.70;99.90;;;;;;4266140;27;20140;-57
2023/11/18 04:58:34;;;;;;;11.02;4.20;;;11.80;99.90;;;;;;4265954;27;20145;-57
2023/11/18 05:00:38;;;;;;;10.63;3.22;;;11.80;99.90;;;;;;4247379;27;20047;-56
2023/11/18 05:02:40;;;;;;;7.88;3.45;;;11.90;99.90;;;;;;4265579;27;20078;-55
2023/11/18 05:04:44;;;;;;;8.57;3.08;;;11.80;99.90;;;;;;4265797;27;20053;-57
2023/11/18 05:06:46;;;;;;;7.45;3.10;;;11.90;99.90;;;;;;4266129;27;20073;-57
2023/11/18 05:08:48;;;;;;;12.77;3.60;;;11.80;99.90;;;;;;4266034;27;20460;-57
2023/11/18 05:10:54;;;;;;;7.90;3.20;;;11.80;99.90;;;;;;4265608;27;20468;-58
2023/11/18 05:12:56;;;;;;;9.57;3.35;;;11.90;99.90;;;;;;4265818;27;20408;-58
2023/11/18 05:15:00;;;;;;;12.75;3.80;;;11.90;99.90;;;;;;4265680;27;20609;-57
2023/11/18 05:17:04;;;;;;;10.70;3.42;;;11.90;99.90;;;;;;4265413;27;20046;-58
2023/11/18 05:19:07;;;;;;;12.25;4.10;;;11.90;99.90;;;;;;4265638;27;20084;-57
2023/11/18 05:21:10;;;;;;;6.22;3.28;;;11.80;99.90;;;;;;4265433;27;20055;-57
2023/11/18 05:23:13;;;;;;;11.77;3.90;;;11.80;99.90;;;;;;4265370;27;20117;-58
2023/11/18 05:25:15;;;;;;;9.55;3.00;;;11.80;99.90;;;;;;4265607;27;20056;-57
2023/11/18 05:27:18;;;;;;;9.85;3.25;;;11.80;99.90;;;;;;4265539;27;20062;-56
2023/11/18 05:29:20;;;;;;;10.60;3.20;;;11.70;99.90;;;;;;4265734;27;20069;-57
2023/11/18 05:31:22;;;;;;;9.02;3.55;;;11.70;99.90;;;;;;4265273;27;20141;-58
2023/11/18 05:33:27;;;;;;;12.07;4.15;;;11.70;99.90;;;;;;4247157;27;20074;-57
2023/11/18 05:35:29;;;;;;;13.60;4.63;;;11.70;99.90;;;;;;4265191;27;20047;-56
2023/11/18 05:37:37;;;;;;;11.93;4.15;;;11.60;99.90;;;;;;4265500;27;20447;-57
2023/11/18 05:39:43;;;;;;;9.35;3.60;;;11.60;99.90;;;;;;4265039;27;20047;-58
2023/11/18 05:41:49;;;;;;;11.93;4.40;;;11.50;99.90;;;;;;4265263;27;20039;-56
2023/11/18 05:43:53;;;;;;;11.95;3.83;;;11.60;99.90;;;;;;4265293;27;20069;-57
2023/11/18 05:48:18;;;;;;;11.85;4.05;;;11.60;99.90;;;;;;4265198;27;20034;-57
2023/11/18 05:50:20;;;;;;;8.25;3.45;;;11.60;99.90;;;;;;4264874;27;20054;-58
2023/11/18 05:52:23;;;;;;;8.25;3.30;;;11.60;99.90;;;;;;4265194;27;20045;-55
2023/11/18 05:54:28;;;;;;;12.35;3.30;;;11.60;99.90;;;;;;4265334;27;20400;-56
2023/11/18 05:56:30;;;;;;;9.75;3.20;;;11.50;99.90;;;;;;4265199;27;20470;-55
2023/11/18 05:58:32;;;;;;;12.88;2.88;;;11.60;99.90;;;;;;4264955;27;20046;-58
2023/11/18 06:00:36;;;;;;;9.95;2.85;;;11.60;99.90;;;;;;4265053;27;20148;-57
2023/11/18 06:02:43;;;;;;;10.23;3.50;;;11.60;99.90;;;;;;4264990;27;20119;-56
2023/11/18 06:04:46;;;;;;;6.50;2.75;;;11.50;99.90;;;;;;4265029;27;20062;-57
2023/11/18 06:06:48;;;;;;;9.65;2.75;;;11.40;99.90;;;;;;4264959;27;20043;-57
2023/11/18 06:08:50;;;;;;;13.02;3.20;;;11.40;99.90;;;;;;4264877;27;20131;-55
2023/11/18 06:10:56;;;;;;;8.93;3.03;;;11.30;99.90;;;;;;4264907;27;20039;-61
2023/11/18 06:12:58;;;;;;;9.25;3.10;;;11.30;99.90;;;;;;4246312;27;20043;-57
2023/11/18 06:15:01;;;;;;;8.95;2.75;;;11.40;99.90;;;;;;4264367;27;20050;-57
2023/11/18 06:17:07;;;;;;;8.02;2.30;;;11.40;99.90;;;;;;4264952;27;20039;-55
2023/11/18 06:19:09;;;;;;;9.38;2.58;;;11.40;99.90;;;;;;4264688;27;20046;-56
2023/11/18 06:21:12;;;;;;;9.30;2.78;;;11.40;99.90;;;;;;4246554;27;20096;-56
2023/11/18 06:23:18;;;;;;;7.90;2.28;;;11.30;99.90;;;;;;4246396;27;20050;-58
2023/11/18 06:25:21;;;;;;;6.72;2.30;;;11.30;99.90;;;;;;4264652;27;20227;-56
2023/11/18 06:27:24;;;;;;;9.85;2.83;;;11.30;99.90;;;;;;4264635;27;20449;-57
2023/11/18 06:29:26;;;;;;;7.10;2.60;;;11.40;99.90;;;;;;4264320;27;20134;-56
2023/11/18 06:31:29;;;;;;;11.48;2.95;;;11.40;99.90;;;;;;4264761;27;20083;-57
2023/11/18 06:33:32;;;;;;;8.07;2.38;;;11.40;99.90;;;;;;4264721;27;20042;-57
2023/11/18 06:35:35;;;;;;;9.60;2.60;;;11.40;99.90;;;;;;4264682;27;20373;-56
2023/11/18 06:37:37;;;;;;;8.85;2.67;;;11.40;99.90;;;;;;4264504;27;20065;-58
2023/11/18 06:39:44;;;;;;;7.40;2.53;;;11.40;99.90;;;;;;4264188;27;20466;-57
2023/11/18 06:41:50;;;;;;;10.90;3.10;;;11.40;99.90;;;;;;4264750;27;20046;-57
2023/11/18 06:46:00;;;;;;;8.18;2.50;;;11.40;99.90;;;;;;4267889;27;20046;-56
2023/11/18 06:48:05;;;;;;;8.02;2.72;;;11.50;99.90;;;;;;4270270;27;20092;-58
2023/11/18 06:50:09;;;;;;;9.93;2.95;;;11.50;99.90;;;;;;4268828;27;20103;-57
2023/11/18 06:52:12;;;;;;;6.80;2.33;;;11.40;99.90;;;;;;4269076;27;20047;-57
2023/11/18 06:54:14;;;;;;;6.43;2.30;;;11.40;99.90;;;;;;4268894;27;20042;-57
2023/11/18 06:56:16;;;;;;;7.47;2.92;;;11.30;99.90;;;;;;4269022;27;20072;-56
2023/11/18 06:58:19;;;;;;;10.40;2.85;;;11.20;99.90;;;;;;4268368;27;20472;-55
2023/11/18 07:00:21;;;;;;;8.18;2.25;;;11.20;99.90;;;;;;4267931;27;20074;-60
2023/11/18 07:02:24;;;;;;;7.05;2.53;;;11.20;99.90;;;;;;4267807;27;20120;-56
2023/11/18 07:04:27;;;;;;;7.22;2.00;;;11.20;99.90;;;;;;4268090;27;20042;-57
2023/11/18 07:06:31;;;;;;;7.93;2.78;;;11.30;99.90;;;;;;4267836;27;20070;-57
2023/11/18 07:08:35;;;;;;;10.70;2.63;;;11.30;99.90;;;;;;4267895;27;20047;-57
2023/11/18 07:10:38;;;;;;;6.53;1.95;;;11.30;99.90;;;;;;4268093;27;20057;-57
2023/11/18 07:12:40;;;;;;;7.00;2.80;;;11.10;99.90;;;;;;4268375;27;20070;-57
2023/11/18 07:14:43;;;;;;;8.82;2.50;;;11.10;99.90;;;;;;4267908;27;20062;-56
2023/11/18 07:16:45;;;;;;;7.22;2.25;;;11.10;99.90;;;;;;4267822;27;20042;-57
2023/11/18 07:18:48;;;;;;;6.60;2.13;;;11.10;99.90;;;;;;4267756;27;20071;-58
2023/11/18 07:20:52;;;;;;;6.63;2.10;;;11.10;99.90;;;;;;4267568;27;20142;-56
2023/11/18 07:22:56;;;;;;;;;;;11.00;99.90;;;;;;4268431;27;20063;-57
2023/11/18 07:24:58;;;;;;;5.82;2.13;;;11.00;99.90;;;;;;4267418;27;19919;-58
2023/11/18 07:27:05;;;;;;;;;;;11.00;99.90;;;;;;4267980;27;20406;-61
2023/11/18 07:29:07;;;;;;;11.43;2.00;;;11.10;99.90;;;;;;4267406;27;19997;-56
2023/11/18 07:31:10;;;;;;;5.97;1.88;;;10.90;99.90;;;;;;4249052;27;20039;-57
2023/11/18 07:33:12;;;;;;;10.75;2.70;;;10.90;99.90;;;;;;4267438;27;20092;-57
2023/11/18 07:35:14;;;;;;;4.63;2.00;;;11.00;99.90;;;;;;4267519;27;20047;-56
2023/11/18 07:37:16;;;;;;;6.90;1.98;;;11.00;99.90;;;;;;4267521;27;20126;-57
2023/11/18 07:39:24;;;;;;;4.30;1.90;;;11.00;99.90;;;;;;4267634;27;20103;-55
2023/11/18 07:41:27;;;;;;;4.15;2.10;;;11.00;99.90;;;;;;4267722;27;20049;-57
2023/11/18 07:43:33;;;;;;;5.05;2.05;;;11.00;99.90;;;;;;4267057;27;20046;-56
2023/11/18 07:45:37;;;;;;;7.82;2.42;;;11.00;99.90;;;;;;4267097;27;20047;-56
2023/11/18 07:47:40;;;;;;;4.22;1.73;;;11.10;99.90;;;;;;4250294;27;20043;-57
2023/11/18 07:49:42;;;;;;;5.93;2.03;;;11.10;99.90;;;;;;4250155;27;20047;-59
2023/11/18 07:51:44;;;;;;;4.40;1.95;;;11.10;99.90;;;;;;4232182;28;20105;-57
2023/11/18 07:53:47;;;;;;;5.32;1.73;;;11.20;99.90;;;;;;4250331;27;20035;-56
2023/11/18 07:55:50;;;;;;;4.05;1.73;;;11.20;99.90;;;;;;4250358;27;20047;-56
2023/11/18 07:57:52;;;;;;;5.90;1.80;;;11.20;99.90;;;;;;4249493;27;20459;-59
2023/11/18 07:59:54;;;;;;;5.75;2.00;;;11.10;99.90;;;;;;4250031;27;20467;-56
2023/11/18 08:01:58;;;;;;;2.85;1.77;;;11.10;99.90;;;;;;4250243;27;20061;-60
2023/11/18 08:04:00;;;;;;;4.57;1.90;;;11.10;99.90;;;;;;4250096;27;20104;-57
2023/11/18 08:06:02;;;;;;;2.20;1.50;;;11.10;99.90;;;;;;4250011;27;20043;-57
2023/11/18 08:08:05;;;;;;;7.32;1.80;;;11.00;99.90;;;;;;4249856;27;20508;-57
2023/11/18 08:10:12;;;;;;;3.58;1.50;;;11.00;99.90;;;;;;4249879;27;20088;-57
2023/11/18 08:12:16;;;;;;;6.30;1.77;;;11.10;99.90;;;;;;4251657;27;20047;-58
2023/11/18 08:14:18;;;;;;;6.32;2.00;;;11.10;99.90;;;;;;4235368;28;20070;-56
2023/11/18 08:16:24;;;;;;;3.38;1.50;;;11.10;99.90;;;;;;4252915;27;20043;-59
2023/11/18 08:18:27;;;;;;;3.33;1.80;;;11.20;99.90;;;;;;4253740;27;20043;-64
2023/11/18 08:20:30;;;;;;;3.97;1.30;;;11.30;99.90;;;;;;4254317;27;20073;-56
2023/11/18 08:22:32;;;;;;;1.92;1.02;;;11.30;99.90;;;;;;4252503;27;20113;-58
2023/11/18 08:24:36;;;;;;;5.95;1.48;;;11.30;99.90;;;;;;4253008;27;20067;-57
2023/11/18 08:26:39;;;;;;;3.83;1.70;;;11.20;99.90;;;;;;4252981;27;20043;-56
2023/11/18 08:28:42;;;;;;;3.58;1.70;;;11.20;99.90;;;;;;4234082;28;20505;-57
2023/11/18 08:30:44;;;;;;;3.67;1.38;;;11.20;99.90;;;;;;4252159;27;20100;-58
2023/11/18 08:32:47;;;;;;;2.25;1.42;;;11.20;99.90;;;;;;4252336;27;20071;-55
2023/11/18 08:34:51;;;;;;;2.97;1.10;;;11.30;99.90;;;;;;4253422;27;20116;-59
2023/11/18 08:36:53;;;;;;;2.67;1.52;;;11.30;99.90;;;;;;4252266;27;20051;-58
2023/11/18 08:38:57;;;;;;;3.55;1.33;;;11.30;99.90;;;;;;4252262;27;20051;-66
2023/11/18 08:40:59;;;;;;;2.45;1.20;;;11.40;99.90;;;;;;4252178;27;20051;-56
2023/11/18 08:43:04;;;;;;;7.47;1.73;;;11.40;99.90;;;;;;4252751;27;20043;-57
2023/11/18 08:45:08;;;;;;;3.75;1.73;;;11.40;99.90;;;;;;4250536;27;20043;-56
2023/11/18 08:47:12;;;;;;;;;;;11.30;99.90;;;;;;4264230;27;20046;-56
2023/11/18 08:49:17;;;;;;;4.13;2.45;;;11.30;99.90;;;;;;4266835;27;19926;-58
2023/11/18 08:51:20;;;;;;;8.48;2.30;;;11.30;99.90;;;;;;4267089;27;20126;-57
2023/11/18 08:53:26;;;;;;;2.90;1.63;;;11.20;99.90;;;;;;4267016;27;20078;-57
2023/11/18 08:57:59;;;;;;;3.30;1.90;;;11.40;99.90;;;;;;4266730;27;20068;-58
2023/11/18 09:00:08;;;;;;;5.30;1.80;;;11.40;99.90;;;;;;4267042;27;20042;-57
2023/11/18 09:02:14;;;;;;;6.25;1.70;;;11.40;99.90;;;;;;4266467;27;20043;-55
2023/11/18 09:04:19;;;;;;;2.40;1.55;;;11.40;99.90;;;;;;4265217;27;20073;-57
2023/11/18 09:06:28;;;;;;;3.80;1.20;;;11.40;99.90;;;;;;4265493;27;20439;-58
2023/11/18 09:08:42;;;;;;;3.92;2.13;;;11.40;99.90;;;;;;4265351;27;20071;-58
2023/11/18 09:10:45;;;;;;;6.97;1.52;;;11.50;99.90;;;;;;4264624;27;20042;-58
2023/11/18 09:12:47;;;;;;;4.03;1.60;;;11.50;99.90;;;;;;4265592;27;20413;-55
2023/11/18 09:14:51;;;;;;;5.30;1.50;;;11.40;99.90;;;;;;4265158;27;20051;-55
2023/11/18 09:16:58;;;;;;;;;;;11.40;99.90;;;;;;4265598;27;20083;-57
2023/11/18 09:19:02;;;;;;;4.70;2.00;;;11.30;99.90;;;;;;4264840;27;19925;-58
2023/11/18 09:21:06;;;;;;;4.80;2.20;;;11.30;99.90;;;;;;4265156;27;20046;-57
2023/11/18 09:23:09;;;;;;;6.18;2.85;;;11.40;99.90;;;;;;4246675;28;20051;-56
2023/11/18 09:25:11;;;;;;;5.75;3.85;;;11.40;99.90;;;;;;4264852;27;20058;-57
2023/11/18 09:27:13;;;;;;;10.93;6.40;;;11.50;99.90;;;;;;4264843;27;20050;-58
2023/11/18 09:29:17;;;;;;;4.90;1.70;;;11.60;99.90;;;;;;4264727;27;20108;-57
2023/11/18 09:31:21;;;;;;;;;;;11.60;99.90;;;;;;4266255;27;20099;-58
2023/11/18 09:33:34;;;;;;;2.47;1.42;;;11.50;99.90;;;;;;4265486;27;19919;-58
2023/11/18 09:35:40;;;;;;;3.70;2.28;;;11.40;99.90;;;;;;4264779;27;20043;-57
2023/11/18 09:37:42;;;;;;;3.60;1.85;;;11.50;99.90;;;;;;4246133;28;20043;-57
2023/11/18 09:39:45;;;;;;;3.00;1.45;;;11.50;99.90;;;;;;4264856;27;20507;-57
2023/11/18 09:41:49;;;;;;;4.63;1.98;;;11.50;99.90;;;;;;4264281;27;20061;-57
2023/11/18 09:43:54;;;;;;;2.58;1.58;;;11.60;99.90;;;;;;4264998;27;20471;-56
2023/11/18 09:46:01;;;;;;;4.28;2.05;;;11.60;99.90;;;;;;4264418;27;20035;-58
2023/11/18 09:48:07;;;;;;;2.25;1.40;;;11.70;99.90;;;;;;4264542;27;20047;-56
2023/11/18 09:50:13;;;;;;;2.35;1.75;;;11.70;99.90;;;;;;4265181;27;20069;-57
2023/11/18 09:52:24;;;;;;;3.22;1.67;;;11.70;99.90;;;;;;4264558;27;20049;-57
2023/11/18 09:54:32;;;;;;;2.90;1.98;;;11.60;99.90;;;;;;4264906;27;20545;-57
2023/11/18 09:56:39;;;;;;;6.55;2.25;;;11.70;99.90;;;;;;4264774;27;20395;-59
2023/11/18 09:58:56;;;;;;;4.88;1.73;;;11.70;99.90;;;;;;4265004;27;20038;-57
2023/11/18 10:01:02;;;;;;;2.58;1.60;;;11.70;99.90;;;;;;4265439;27;20054;-58
2023/11/18 10:03:08;;;;;;;2.88;1.40;;;12.10;99.90;;;;;;4265621;27;20497;-63
2023/11/18 10:05:13;;;;;;;4.43;1.80;;;12.30;99.90;;;;;;4266349;27;20047;-58
2023/11/18 10:07:19;;;;;;;4.25;2.40;;;12.50;99.90;;;;;;4246541;27;20138;-63
2023/11/18 10:09:28;;;;;;;6.38;1.98;;;12.50;99.90;;;;;;4265726;27;20096;-56
2023/11/18 10:11:34;;;;;;;4.72;1.85;;;12.50;99.90;;;;;;4266534;27;20070;-61
2023/11/18 10:13:40;;;;;;;3.22;1.80;;;12.70;99.90;;;;;;4265677;27;20111;-55
2023/11/18 10:15:44;;;;;;;3.22;1.55;;;12.80;99.90;;;;;;4264840;27;20390;-57
2023/11/18 10:17:56;;;;;;;3.53;1.85;;;12.90;99.90;;;;;;4264843;27;20062;-57
2023/11/18 10:19:59;;;;;;;2.47;1.63;;;13.00;99.90;;;;;;4257038;27;20057;-57
2023/11/18 10:22:04;;;;;;;10.05;2.10;;;13.10;99.90;;;;;;4257300;27;20758;-57
2023/11/18 10:24:19;;;;;;;2.33;1.27;;;13.20;99.90;;;;;;4259132;27;20039;-57
2023/11/18 10:26:25;;;;;;;20.60;2.03;;;13.20;99.90;;;;;;4257652;27;20039;-56
2023/11/18 10:28:27;;;;;;;;;;;13.20;99.90;;;;;;4255253;27;20047;-57
2023/11/18 10:30:31;;;;;;;7.10;1.70;;;13.30;99.90;;;;;;4247015;27;19970;-56
2023/11/18 10:32:35;;;;;;;20.58;2.92;;;13.30;99.90;;;;;;4256085;27;20051;-59
2023/11/18 10:34:39;;;;;;;11.57;2.28;;;13.40;99.90;;;;;;4263707;27;20087;-61
2023/11/18 10:36:58;;;;;;;8.43;2.00;;;13.50;99.90;;;;;;4265502;27;20058;-56
2023/11/18 10:39:03;;;;;;;4.35;1.50;;;13.50;99.90;;;;;;4267122;27;20072;-58
2023/11/18 10:41:06;;;;;;;;;;;13.40;99.90;;;;;;4240646;28;20485;-60
2023/11/18 10:43:09;;;;;;;6.47;1.88;;;13.40;99.90;;;;;;4249895;28;19931;-68
2023/11/18 10:45:12;;;;;;;10.67;2.17;;;13.40;99.90;;;;;;4250109;28;20053;-57
2023/11/18 10:47:17;;;;;;;7.55;1.95;;;13.40;99.90;;;;;;4264995;27;20043;-57
2023/11/18 10:49:20;;;;;;;7.07;1.50;;;13.30;99.90;;;;;;4266732;27;20157;-57